Time;durP1;ratioP1;P1;durP2;ratioP2;P2;SDS_P1;SDS_P2;PMS_P1;PMS_P2;Temp;Humidity;BMP_temperature;BMP_pressure;BME280_temperature;BME280_humidity;BME280_pressure;Samples;Min_cycle;Max_cycle;Signal;HPM_P1;HPM_P2
2021/07/28 00:01:09;;;;;;;1.52;1.10;;;19.40;99.90;;;;;;4939603;28;20640;-76
2021/07/28 00:03:35;;;;;;;1.27;1.15;;;19.40;99.90;;;;;;4941316;28;20225;-77
2021/07/28 00:06:01;;;;;;;2.65;1.08;;;19.30;99.90;;;;;;4940453;28;20257;-76
2021/07/28 00:08:26;;;;;;;1.20;1.10;;;19.30;99.90;;;;;;4942239;29;20185;-77
2021/07/28 00:10:52;;;;;;;1.42;1.23;;;19.30;99.90;;;;;;4940327;29;20185;-76
2021/07/28 00:13:17;;;;;;;2.55;1.30;;;19.30;99.90;;;;;;4938487;29;20214;-77
2021/07/28 00:15:43;;;;;;;1.10;1.00;;;19.30;99.90;;;;;;4939162;28;20214;-76
2021/07/28 00:18:16;;;;;;;1.33;1.23;;;19.30;99.90;;;;;;4940161;29;20286;-77
2021/07/28 00:23:16;;;;;;;1.95;1.52;;;19.20;99.90;;;;;;4941040;29;20186;-77
2021/07/28 00:25:47;;;;;;;1.30;0.98;;;19.30;99.90;;;;;;4939206;29;20295;-76
2021/07/28 00:28:13;;;;;;;1.30;1.20;;;19.30;99.90;;;;;;4939642;29;20182;-77
2021/07/28 00:30:41;;;;;;;1.42;1.10;;;19.30;99.90;;;;;;4939044;29;20197;-76
2021/07/28 00:33:07;;;;;;;1.77;1.35;;;19.30;99.90;;;;;;4939966;29;20201;-77
2021/07/28 00:35:32;;;;;;;2.10;1.30;;;19.40;99.90;;;;;;4937921;28;20269;-77
2021/07/28 00:38:06;;;;;;;1.48;1.20;;;19.40;99.90;;;;;;4939179;28;20189;-77
2021/07/28 00:40:32;;;;;;;1.25;1.15;;;19.30;99.90;;;;;;4939157;28;20186;-77
2021/07/28 00:43:14;;;;;;;1.60;1.30;;;19.30;99.90;;;;;;4939367;29;20191;-77
2021/07/28 00:45:41;;;;;;;1.63;1.30;;;19.20;99.90;;;;;;4938317;28;20578;-76
2021/07/28 00:48:08;;;;;;;1.98;1.30;;;19.20;99.90;;;;;;4938751;28;20974;-78
2021/07/28 00:50:36;;;;;;;1.25;1.15;;;19.10;99.90;;;;;;4940710;29;20206;-77
2021/07/28 00:53:02;;;;;;;1.60;1.23;;;19.10;99.90;;;;;;4937430;29;20209;-76
2021/07/28 00:55:30;;;;;;;1.45;1.15;;;19.00;99.90;;;;;;4939325;28;20209;-77
2021/07/28 00:57:58;;;;;;;2.25;1.42;;;19.00;99.90;;;;;;4937847;29;20177;-76
2021/07/28 01:00:23;;;;;;;1.50;1.25;;;19.00;99.90;;;;;;4939351;29;21094;-77
2021/07/28 01:02:49;;;;;;;1.20;1.10;;;19.00;99.90;;;;;;4940423;29;20200;-76
2021/07/28 01:05:15;;;;;;;1.58;1.30;;;19.00;99.90;;;;;;4938630;28;20233;-76
2021/07/28 01:07:40;;;;;;;1.20;1.02;;;18.80;99.90;;;;;;4936954;29;20190;-76
2021/07/28 01:10:06;;;;;;;1.48;1.35;;;18.80;99.90;;;;;;4940815;29;20186;-77
2021/07/28 01:12:34;;;;;;;2.08;1.40;;;18.70;99.90;;;;;;4938125;29;20206;-77
2021/07/28 01:14:59;;;;;;;2.15;1.27;;;18.70;99.90;;;;;;4940330;28;20189;-77
2021/07/28 01:17:25;;;;;;;2.05;1.65;;;18.80;99.90;;;;;;4938720;29;21066;-76
2021/07/28 01:20:00;;;;;;;1.73;1.33;;;18.90;99.90;;;;;;4942406;29;20186;-77
2021/07/28 01:22:26;;;;;;;2.33;1.40;;;18.80;99.90;;;;;;4939483;28;20181;-78
2021/07/28 01:24:52;;;;;;;1.90;1.40;;;18.70;99.90;;;;;;4939194;28;20186;-77
2021/07/28 01:27:18;;;;;;;1.85;1.40;;;18.70;99.90;;;;;;4940055;29;20209;-76
2021/07/28 01:29:44;;;;;;;1.88;1.30;;;18.60;99.90;;;;;;4938748;29;20292;-76
2021/07/28 01:32:09;;;;;;;1.50;1.30;;;18.60;99.90;;;;;;4940309;29;20279;-76
2021/07/28 01:34:35;;;;;;;1.55;1.38;;;18.60;99.90;;;;;;4937447;29;21279;-76
2021/07/28 01:37:03;;;;;;;1.55;1.35;;;18.60;99.90;;;;;;4940222;28;20212;-78
2021/07/28 01:39:29;;;;;;;2.80;1.55;;;18.50;99.90;;;;;;4939061;28;20177;-77
2021/07/28 01:42:01;;;;;;;2.22;1.50;;;18.50;99.90;;;;;;4936100;29;20193;-76
2021/07/28 01:44:27;;;;;;;1.45;1.08;;;18.50;99.90;;;;;;4936692;29;20194;-75
2021/07/28 01:46:52;;;;;;;1.80;1.40;;;18.60;99.90;;;;;;4937950;28;20205;-77
2021/07/28 01:49:19;;;;;;;2.22;1.48;;;18.60;99.90;;;;;;4945253;29;20194;-77
2021/07/28 01:51:44;;;;;;;1.92;1.17;;;18.60;99.90;;;;;;4953971;28;20205;-76
2021/07/28 01:54:10;;;;;;;1.73;1.25;;;18.50;99.90;;;;;;4941819;28;20209;-77
2021/07/28 01:56:42;;;;;;;1.45;1.30;;;18.50;99.90;;;;;;4943264;28;20214;-76
2021/07/28 01:59:12;;;;;;;1.67;1.35;;;18.50;99.90;;;;;;4944295;29;20192;-76
2021/07/28 02:01:38;;;;;;;2.70;1.95;;;18.50;99.90;;;;;;4941435;29;20216;-75
2021/07/28 02:04:03;;;;;;;1.90;1.65;;;18.50;99.90;;;;;;4939879;29;20991;-77
2021/07/28 02:06:29;;;;;;;1.50;1.30;;;18.50;99.90;;;;;;4942392;29;20217;-76
2021/07/28 02:08:54;;;;;;;3.30;1.50;;;18.50;99.90;;;;;;4942004;29;20272;-76
2021/07/28 02:11:20;;;;;;;1.77;1.33;;;18.50;99.90;;;;;;4938443;29;20190;-76
2021/07/28 02:13:45;;;;;;;2.17;1.60;;;18.40;99.90;;;;;;4939146;29;20209;-76
2021/07/28 02:16:11;;;;;;;1.77;1.42;;;18.30;99.90;;;;;;4939988;28;20225;-77
2021/07/28 02:18:36;;;;;;;1.52;1.35;;;18.30;99.90;;;;;;4941331;28;20181;-77
2021/07/28 02:21:04;;;;;;;2.20;1.27;;;18.30;99.90;;;;;;4940663;29;20289;-76
2021/07/28 02:23:30;;;;;;;2.30;1.52;;;18.40;99.90;;;;;;4940627;29;20249;-76
2021/07/28 02:25:56;;;;;;;1.70;1.27;;;18.50;99.90;;;;;;4940963;29;20206;-76
2021/07/28 02:28:21;;;;;;;1.50;1.40;;;18.50;99.90;;;;;;4937471;29;20288;-76
2021/07/28 02:30:47;;;;;;;1.42;1.33;;;18.50;99.90;;;;;;4940840;29;20191;-76
2021/07/28 02:33:12;;;;;;;1.83;1.27;;;18.40;99.90;;;;;;4941174;29;20220;-76
2021/07/28 02:35:38;;;;;;;1.98;1.40;;;18.50;99.90;;;;;;4939777;29;20280;-75
2021/07/28 02:38:03;;;;;;;2.58;1.90;;;18.60;99.90;;;;;;4939603;28;20593;-76
2021/07/28 02:40:29;;;;;;;1.83;1.30;;;18.40;99.90;;;;;;4939681;28;20190;-76
2021/07/28 02:42:55;;;;;;;2.15;1.50;;;18.30;99.90;;;;;;4939382;29;20190;-77
2021/07/28 02:45:20;;;;;;;1.50;1.40;;;18.20;99.90;;;;;;4941258;28;20224;-76
2021/07/28 02:47:46;;;;;;;1.90;1.35;;;18.10;99.90;;;;;;4938837;29;20573;-76
2021/07/28 02:50:12;;;;;;;2.10;1.38;;;18.00;99.90;;;;;;4941294;28;20193;-76
2021/07/28 02:52:38;;;;;;;1.85;1.50;;;17.90;99.90;;;;;;4939366;28;20250;-77
2021/07/28 02:55:07;;;;;;;2.65;1.73;;;17.80;99.90;;;;;;4939416;28;20285;-75
2021/07/28 02:57:33;;;;;;;2.65;1.65;;;17.70;99.90;;;;;;4939458;29;20271;-76
2021/07/28 02:59:59;;;;;;;2.72;1.63;;;17.60;99.90;;;;;;4942462;28;20230;-77
2021/07/28 03:02:26;;;;;;;2.80;1.60;;;17.50;99.90;;;;;;4941597;29;20186;-76
2021/07/28 03:04:51;;;;;;;2.15;1.55;;;17.40;99.90;;;;;;4942121;28;20272;-76
2021/07/28 03:07:17;;;;;;;1.95;1.60;;;17.30;99.90;;;;;;4941829;28;20268;-76
2021/07/28 03:09:42;;;;;;;2.15;1.75;;;17.30;99.90;;;;;;4942607;29;20194;-76
2021/07/28 03:12:08;;;;;;;2.08;1.88;;;17.30;99.90;;;;;;4940695;28;20206;-76
2021/07/28 03:14:34;;;;;;;1.98;1.60;;;17.10;99.90;;;;;;4937873;29;20218;-77
2021/07/28 03:16:59;;;;;;;1.85;1.67;;;17.00;99.90;;;;;;4938786;28;20228;-76
2021/07/28 03:19:25;;;;;;;2.75;1.83;;;17.00;99.90;;;;;;4941096;29;20189;-77
2021/07/28 03:21:50;;;;;;;2.22;1.88;;;17.00;99.90;;;;;;4941846;28;20257;-77
2021/07/28 03:24:17;;;;;;;3.08;1.65;;;16.90;99.90;;;;;;4941373;28;20201;-78
2021/07/28 03:26:43;;;;;;;2.40;1.90;;;17.00;99.90;;;;;;4942374;28;20225;-78
2021/07/28 03:29:08;;;;;;;1.70;1.60;;;16.90;99.90;;;;;;4941122;29;20190;-78
2021/07/28 03:31:34;;;;;;;2.05;1.80;;;16.90;99.90;;;;;;4939871;29;20182;-78
2021/07/28 03:33:59;;;;;;;1.90;1.50;;;16.80;99.90;;;;;;4941113;28;20292;-77
2021/07/28 03:36:25;;;;;;;1.85;1.67;;;16.80;99.90;;;;;;4939413;28;20210;-78
2021/07/28 03:38:50;;;;;;;2.60;1.67;;;16.80;99.90;;;;;;4938943;28;20657;-78
2021/07/28 03:41:16;;;;;;;2.58;1.63;;;16.90;99.90;;;;;;4944042;28;20544;-78
2021/07/28 03:43:41;;;;;;;3.15;2.00;;;16.90;99.90;;;;;;4939838;28;20631;-77
2021/07/28 03:46:07;;;;;;;1.80;1.40;;;16.90;99.90;;;;;;4940070;28;20222;-77
2021/07/28 03:48:33;;;;;;;1.80;1.40;;;17.00;99.90;;;;;;4939842;29;20193;-78
2021/07/28 03:50:58;;;;;;;2.30;1.63;;;17.10;99.90;;;;;;4938983;28;20190;-77
2021/07/28 03:53:24;;;;;;;3.45;1.77;;;17.20;99.90;;;;;;4940378;29;20481;-78
2021/07/28 03:55:50;;;;;;;1.60;1.30;;;17.20;99.90;;;;;;4942417;28;20198;-78
2021/07/28 03:58:16;;;;;;;2.17;1.60;;;17.30;99.90;;;;;;4944047;29;20200;-79
2021/07/28 04:00:41;;;;;;;2.03;1.33;;;17.40;99.90;;;;;;4943557;28;20435;-78
2021/07/28 04:03:07;;;;;;;1.67;1.40;;;17.50;99.90;;;;;;4945547;29;20186;-79
2021/07/28 04:05:32;;;;;;;1.83;1.50;;;17.50;99.90;;;;;;4943188;28;20268;-78
2021/07/28 04:07:58;;;;;;;2.17;1.75;;;17.50;99.90;;;;;;4948856;29;20189;-77
2021/07/28 04:10:24;;;;;;;2.58;1.70;;;17.60;99.90;;;;;;4940424;29;20214;-78
2021/07/28 04:12:50;;;;;;;1.90;1.70;;;17.60;99.90;;;;;;4941921;29;20675;-78
2021/07/28 04:15:16;;;;;;;1.50;1.38;;;17.60;99.90;;;;;;4943204;28;20288;-78
2021/07/28 04:17:42;;;;;;;1.88;1.30;;;17.70;99.90;;;;;;4941629;28;21113;-79
2021/07/28 04:20:08;;;;;;;1.88;1.60;;;17.70;99.90;;;;;;4945353;28;20182;-79
2021/07/28 04:22:33;;;;;;;1.42;1.33;;;17.70;99.90;;;;;;4945971;29;20188;-77
2021/07/28 04:25:01;;;;;;;2.03;1.55;;;17.70;99.90;;;;;;4942584;28;20185;-78
2021/07/28 04:27:29;;;;;;;3.30;1.75;;;17.80;99.90;;;;;;4939139;29;20186;-79
2021/07/28 04:29:56;;;;;;;2.90;1.70;;;17.80;99.90;;;;;;4940814;29;20182;-79
2021/07/28 04:32:21;;;;;;;1.88;1.50;;;17.90;99.90;;;;;;4939591;29;20652;-79
2021/07/28 04:34:47;;;;;;;2.20;1.60;;;17.90;99.90;;;;;;4938966;28;20210;-79
2021/07/28 04:37:13;;;;;;;2.25;1.50;;;18.00;99.90;;;;;;4941986;29;20182;-79
2021/07/28 04:39:38;;;;;;;1.67;1.35;;;18.00;99.90;;;;;;4939280;29;20366;-79
2021/07/28 04:42:04;;;;;;;1.92;1.50;;;18.00;99.90;;;;;;4938650;29;20208;-78
2021/07/28 04:44:29;;;;;;;1.98;1.50;;;18.30;99.90;;;;;;4934432;28;20198;-80
2021/07/28 04:46:56;;;;;;;1.50;1.40;;;18.90;99.90;;;;;;4936272;28;20946;-80
2021/07/28 04:49:22;;;;;;;1.50;1.40;;;19.60;99.90;;;;;;4934381;28;20186;-79
2021/07/28 04:51:47;;;;;;;2.08;1.27;;;20.70;99.90;;;;;;4933455;29;20351;-80
2021/07/28 04:54:13;;;;;;;3.15;1.20;;;21.70;99.90;;;;;;4938848;29;20208;-80
2021/07/28 04:56:39;;;;;;;1.30;1.10;;;22.40;99.90;;;;;;4937135;28;20202;-79
2021/07/28 04:59:04;;;;;;;1.45;1.27;;;23.10;99.90;;;;;;4937999;29;20555;-79
2021/07/28 05:01:30;;;;;;;1.45;1.27;;;23.70;99.90;;;;;;4935076;29;20192;-80
2021/07/28 05:03:56;;;;;;;3.15;1.30;;;23.80;99.90;;;;;;4939308;29;20774;-80
2021/07/28 05:06:21;;;;;;;1.63;1.30;;;23.70;99.90;;;;;;4944246;28;20235;-79
2021/07/28 05:08:47;;;;;;;1.70;1.50;;;24.00;99.90;;;;;;4936686;28;20196;-79
2021/07/28 05:11:12;;;;;;;2.08;1.40;;;24.30;99.90;;;;;;4943112;29;20296;-80
2021/07/28 05:13:38;;;;;;;1.70;1.60;;;24.80;99.90;;;;;;4943262;28;20931;-79
2021/07/28 05:16:04;;;;;;;1.60;1.25;;;25.20;99.90;;;;;;4940337;28;20300;-80
2021/07/28 05:18:29;;;;;;;1.58;1.48;;;25.30;99.90;;;;;;4938837;28;20210;-79
2021/07/28 05:20:57;;;;;;;1.55;1.45;;;24.70;99.90;;;;;;4941038;28;20237;-80
2021/07/28 05:23:53;;;;;;;2.30;1.65;;;24.00;99.90;;;;;;4938629;29;20684;-78
2021/07/28 05:26:19;;;;;;;1.70;1.55;;;23.40;99.90;;;;;;4942032;23;20604;-65
2021/07/28 05:28:44;;;;;;;1.77;1.25;;;23.40;99.90;;;;;;4928680;28;20693;-66
2021/07/28 05:31:19;;;;;;;1.85;1.52;;;23.80;99.90;;;;;;4926639;29;20188;-67
2021/07/28 05:33:45;;;;;;;1.25;1.15;;;24.20;99.90;;;;;;4926458;29;20245;-67
2021/07/28 05:36:11;;;;;;;2.28;1.77;;;24.10;99.90;;;;;;4926404;29;20281;-68
2021/07/28 05:38:36;;;;;;;1.77;1.63;;;24.10;99.90;;;;;;4925464;29;20194;-68
2021/07/28 05:41:03;;;;;;;1.80;1.27;;;24.30;99.90;;;;;;4932283;29;20218;-68
2021/07/28 05:43:28;;;;;;;1.40;1.30;;;24.50;99.90;;;;;;4926534;29;20289;-68
2021/07/28 05:56:15;;;;;;;1.50;1.40;;;25.20;99.90;;;;;;5510609;23;20237;-68
2021/07/28 05:58:41;;;;;;;3.20;1.40;;;25.30;99.90;;;;;;4923938;29;20257;-67
2021/07/28 06:01:07;;;;;;;1.70;1.38;;;25.40;99.90;;;;;;4924692;29;21280;-68
2021/07/28 06:03:32;;;;;;;3.13;1.38;;;25.70;99.90;;;;;;4924628;29;20190;-68
2021/07/28 06:05:59;;;;;;;1.73;1.63;;;26.00;99.90;;;;;;4922742;29;20244;-68
2021/07/28 06:08:24;;;;;;;1.52;1.20;;;26.30;99.90;;;;;;4924491;29;20277;-69
2021/07/28 06:10:50;;;;;;;1.88;1.67;;;26.40;99.90;;;;;;4924886;29;20277;-69
2021/07/28 06:13:15;;;;;;;1.60;1.50;;;26.80;99.90;;;;;;4926108;29;20248;-68
2021/07/28 06:15:41;;;;;;;1.42;1.20;;;26.60;99.90;;;;;;4925071;29;20207;-67
2021/07/28 06:18:07;;;;;;;1.65;1.52;;;26.80;99.90;;;;;;4925871;29;20197;-69
2021/07/28 06:20:32;;;;;;;1.38;1.25;;;26.80;99.90;;;;;;4925638;29;20178;-67
2021/07/28 06:22:58;;;;;;;2.45;1.55;;;26.70;99.90;;;;;;4925753;29;20183;-67
2021/07/28 06:25:24;;;;;;;1.80;1.38;;;26.90;99.90;;;;;;4925025;29;20209;-69
2021/07/28 06:27:50;;;;;;;1.90;1.45;;;26.80;99.90;;;;;;4925893;29;20218;-69
2021/07/28 06:30:17;;;;;;;2.22;1.50;;;27.30;99.90;;;;;;4924512;29;20212;-68
2021/07/28 06:32:43;;;;;;;1.80;1.42;;;27.40;99.90;;;;;;4925417;29;20197;-69
2021/07/28 06:35:09;;;;;;;1.58;1.33;;;27.20;99.90;;;;;;4925452;29;20599;-69
2021/07/28 06:37:34;;;;;;;1.65;1.55;;;26.60;99.90;;;;;;4926248;29;20265;-68
2021/07/28 06:40:00;;;;;;;2.05;1.60;;;26.20;99.90;;;;;;4929291;29;20845;-69
2021/07/28 06:42:26;;;;;;;1.70;1.60;;;25.90;99.90;;;;;;4929181;29;20189;-68
2021/07/28 06:44:52;;;;;;;2.22;2.03;;;26.00;99.90;;;;;;4929184;29;20634;-68
2021/07/28 06:47:19;;;;;;;1.67;1.58;;;25.50;99.90;;;;;;4929476;29;20202;-67
2021/07/28 06:49:44;;;;;;;1.80;1.55;;;25.10;99.90;;;;;;4929574;29;20210;-67
2021/07/28 06:52:10;;;;;;;4.97;1.42;;;24.60;99.90;;;;;;4929076;29;20614;-68
2021/07/28 06:54:36;;;;;;;3.35;1.92;;;24.10;99.90;;;;;;4928672;29;20678;-70
2021/07/28 06:57:02;;;;;;;1.52;1.42;;;23.90;99.90;;;;;;4929206;29;20260;-71
2021/07/28 06:59:27;;;;;;;2.30;1.60;;;23.60;99.90;;;;;;4929348;29;20182;-70
2021/07/28 07:01:53;;;;;;;2.50;1.77;;;23.50;99.90;;;;;;4929116;29;20253;-72
2021/07/28 07:04:20;;;;;;;1.88;1.35;;;23.30;99.90;;;;;;4928655;29;20668;-68
2021/07/28 07:06:45;;;;;;;3.15;1.75;;;23.40;99.90;;;;;;4929149;29;20206;-69
2021/07/28 07:09:11;;;;;;;4.72;1.55;;;23.20;99.90;;;;;;4929147;29;20239;-69
2021/07/28 07:11:36;;;;;;;3.67;1.80;;;23.10;99.90;;;;;;4928027;29;20350;-72
2021/07/28 07:14:02;;;;;;;1.73;1.23;;;22.90;99.90;;;;;;4927961;29;20206;-70
2021/07/28 07:16:28;;;;;;;1.58;1.13;;;23.00;99.90;;;;;;4928780;29;20206;-69
2021/07/28 07:18:55;;;;;;;2.55;1.52;;;23.20;99.90;;;;;;4928676;29;20210;-70
2021/07/28 07:21:20;;;;;;;2.15;1.33;;;23.10;99.90;;;;;;4929060;29;20238;-70
2021/07/28 07:23:46;;;;;;;2.05;1.63;;;23.20;99.90;;;;;;4928127;29;21304;-67
2021/07/28 07:26:11;;;;;;;1.58;1.30;;;23.30;99.90;;;;;;4929038;29;21255;-68
2021/07/28 07:28:37;;;;;;;1.75;1.48;;;23.50;99.90;;;;;;4927710;29;20197;-68
2021/07/28 07:31:08;;;;;;;1.95;1.38;;;23.70;99.90;;;;;;4929012;29;20190;-68
2021/07/28 07:33:38;;;;;;;2.10;1.60;;;23.70;99.90;;;;;;4928533;29;20279;-69
2021/07/28 07:36:04;;;;;;;1.80;1.30;;;23.80;99.90;;;;;;4927834;29;20199;-69
2021/07/28 07:38:30;;;;;;;2.13;1.27;;;23.80;99.90;;;;;;4928762;29;20182;-67
2021/07/28 07:40:56;;;;;;;1.45;1.35;;;23.90;99.90;;;;;;4928636;29;20179;-68
2021/07/28 07:43:22;;;;;;;4.10;1.83;;;24.10;99.90;;;;;;4928901;29;20199;-68
2021/07/28 07:45:47;;;;;;;1.52;1.42;;;24.10;99.90;;;;;;4927775;29;20575;-68
2021/07/28 07:48:13;;;;;;;1.67;1.33;;;24.10;99.90;;;;;;4928818;29;20201;-68
2021/07/28 07:50:38;;;;;;;2.15;1.80;;;24.00;99.90;;;;;;4927328;29;20281;-68
2021/07/28 07:53:04;;;;;;;1.80;1.33;;;24.10;99.90;;;;;;4928260;29;20836;-70
2021/07/28 07:55:30;;;;;;;8.10;1.98;;;24.20;99.90;;;;;;4927661;29;20572;-68
2021/07/28 07:57:57;;;;;;;3.08;1.45;;;24.00;99.90;;;;;;4928463;29;21183;-68
2021/07/28 08:00:23;;;;;;;2.20;1.70;;;24.20;99.90;;;;;;4928390;29;20273;-68
2021/07/28 08:02:49;;;;;;;2.03;1.48;;;24.30;99.90;;;;;;4928094;29;20269;-68
2021/07/28 08:05:15;;;;;;;1.40;1.30;;;24.50;99.90;;;;;;4927288;29;20267;-70
2021/07/28 08:07:40;;;;;;;1.77;1.35;;;24.50;99.90;;;;;;4928009;29;20224;-69
2021/07/28 08:10:07;;;;;;;1.77;1.30;;;24.50;99.90;;;;;;4928478;29;20344;-69
2021/07/28 08:12:34;;;;;;;1.42;1.25;;;24.60;99.90;;;;;;4928590;29;20585;-69
2021/07/28 08:15:00;;;;;;;1.77;1.50;;;24.80;99.90;;;;;;4925953;29;20273;-68
2021/07/28 08:17:25;;;;;;;1.70;1.40;;;25.20;99.90;;;;;;4928158;29;20179;-67
2021/07/28 08:19:51;;;;;;;1.83;1.33;;;25.50;99.90;;;;;;4927989;29;20186;-67
2021/07/28 08:22:17;;;;;;;2.08;1.77;;;25.50;99.90;;;;;;4927826;29;20205;-69
2021/07/28 08:24:42;;;;;;;1.77;1.50;;;25.50;99.90;;;;;;4926716;29;20212;-68
2021/07/28 08:27:08;;;;;;;2.38;1.63;;;25.70;99.90;;;;;;4927920;29;20220;-70
2021/07/28 08:29:33;;;;;;;2.67;1.65;;;25.70;99.90;;;;;;4927565;29;20205;-66
2021/07/28 08:31:59;;;;;;;3.88;2.17;;;25.50;99.90;;;;;;4927673;29;20186;-68
2021/07/28 08:34:25;;;;;;;1.60;1.50;;;25.40;99.90;;;;;;4926915;29;20264;-67
2021/07/28 08:36:50;;;;;;;1.85;1.50;;;25.40;99.90;;;;;;4927618;29;20194;-68
2021/07/28 08:39:16;;;;;;;3.10;1.65;;;25.60;99.90;;;;;;4927874;29;20307;-69
2021/07/28 08:41:48;;;;;;;2.13;1.80;;;25.50;99.90;;;;;;4927593;29;20202;-68
2021/07/28 08:44:19;;;;;;;3.55;1.60;;;25.70;99.90;;;;;;4926653;29;20538;-69
2021/07/28 08:46:45;;;;;;;6.75;2.30;;;25.60;99.90;;;;;;4927640;29;20209;-68
2021/07/28 08:49:14;;;;;;;2.95;1.90;;;25.20;99.90;;;;;;4927299;29;20186;-67
2021/07/28 08:51:43;;;;;;;5.03;1.92;;;25.00;99.90;;;;;;4927456;29;20194;-69
2021/07/28 08:54:09;;;;;;;1.80;1.55;;;25.10;99.90;;;;;;4926420;29;20200;-67
2021/07/28 08:56:39;;;;;;;2.42;1.65;;;25.40;99.90;;;;;;4926884;29;20222;-67
2021/07/28 08:59:05;;;;;;;2.53;1.70;;;25.30;99.90;;;;;;4926990;29;20489;-67
2021/07/28 09:01:31;;;;;;;2.88;2.13;;;25.60;99.90;;;;;;4927074;29;20190;-66
2021/07/28 09:03:57;;;;;;;2.08;1.88;;;25.50;99.90;;;;;;4926513;29;20186;-66
2021/07/28 09:06:27;;;;;;;2.67;1.92;;;25.50;99.90;;;;;;4927042;29;20685;-67
2021/07/28 09:09:02;;;;;;;4.63;2.03;;;25.40;99.90;;;;;;4927306;29;20273;-67
2021/07/28 09:11:28;;;;;;;3.30;1.75;;;25.30;99.90;;;;;;4927430;29;20196;-67
2021/07/28 09:13:56;;;;;;;1.55;1.30;;;25.10;99.90;;;;;;4926267;29;20214;-68
2021/07/28 09:16:23;;;;;;;2.67;1.88;;;24.90;99.90;;;;;;4926217;29;20217;-68
2021/07/28 09:18:51;;;;;;;1.80;1.52;;;25.00;99.90;;;;;;4927081;29;20186;-66
2021/07/28 09:21:19;;;;;;;3.28;1.60;;;25.10;99.90;;;;;;4927235;29;20190;-68
2021/07/28 09:23:55;;;;;;;6.53;2.15;;;25.00;99.90;;;;;;4926456;29;20221;-68
2021/07/28 09:26:39;;;;;;;1.88;1.77;;;24.80;99.90;;;;;;4927001;29;20225;-69
2021/07/28 09:29:06;;;;;;;1.70;1.50;;;24.80;99.90;;;;;;4926597;29;20186;-67
2021/07/28 09:31:38;;;;;;;2.03;1.85;;;24.70;99.90;;;;;;4926809;29;20273;-68
2021/07/28 09:34:26;;;;;;;3.63;1.98;;;24.70;99.90;;;;;;4926151;29;20207;-67
2021/07/28 09:37:30;;;;;;;2.63;1.48;;;24.60;99.90;;;;;;4926455;29;20206;-67
2021/07/28 09:39:55;;;;;;;2.50;1.80;;;25.00;99.90;;;;;;4927217;29;20186;-67
2021/07/28 09:42:28;;;;;;;2.33;1.63;;;25.30;99.90;;;;;;4926907;29;20741;-67
2021/07/28 09:44:55;;;;;;;2.08;1.77;;;25.30;99.90;;;;;;4924702;29;20197;-66
2021/07/28 09:47:23;;;;;;;4.32;1.92;;;25.30;99.90;;;;;;4926594;29;20232;-68
2021/07/28 09:50:01;;;;;;;2.20;1.50;;;25.40;99.90;;;;;;4926642;29;20190;-67
2021/07/28 09:52:34;;;;;;;1.88;1.70;;;25.40;99.90;;;;;;4927119;29;20317;-67
2021/07/28 09:55:21;;;;;;;3.00;1.88;;;25.20;99.90;;;;;;4925904;29;20217;-69
2021/07/28 09:57:53;;;;;;;4.03;1.60;;;25.30;99.90;;;;;;4926084;29;20245;-68
2021/07/28 10:00:19;;;;;;;2.65;1.60;;;25.30;99.90;;;;;;4926609;29;20185;-68
2021/07/28 10:02:46;;;;;;;2.85;1.80;;;25.10;99.90;;;;;;4926676;29;20547;-69
2021/07/28 10:05:12;;;;;;;2.30;1.95;;;24.90;99.90;;;;;;4926127;29;20197;-67
2021/07/28 10:07:40;;;;;;;3.63;1.67;;;24.80;99.90;;;;;;4926709;29;20202;-69
2021/07/28 10:10:11;;;;;;;1.65;1.50;;;25.00;99.90;;;;;;4926835;29;20202;-68
2021/07/28 10:12:39;;;;;;;2.25;1.90;;;25.30;99.90;;;;;;4926598;29;20200;-67
2021/07/28 10:15:07;;;;;;;2.05;1.63;;;25.20;99.90;;;;;;4929274;29;20208;-68
2021/07/28 10:17:34;;;;;;;1.50;1.40;;;25.10;99.90;;;;;;4930427;29;20347;-67
2021/07/28 10:20:00;;;;;;;1.90;1.67;;;25.10;99.90;;;;;;4930342;29;20714;-69
2021/07/28 10:22:27;;;;;;;2.55;1.70;;;25.60;99.90;;;;;;4930265;29;20190;-69
2021/07/28 10:24:54;;;;;;;2.33;1.75;;;25.50;99.90;;;;;;4929704;29;20190;-67
2021/07/28 10:27:21;;;;;;;4.18;1.95;;;25.40;99.90;;;;;;4929785;29;20206;-67
2021/07/28 10:29:50;;;;;;;1.92;1.73;;;25.30;99.90;;;;;;4930133;29;20557;-67
2021/07/28 10:32:32;;;;;;;2.30;1.67;;;25.40;99.90;;;;;;4930379;29;20179;-66
2021/07/28 10:35:19;;;;;;;1.88;1.48;;;25.30;99.90;;;;;;4928949;29;20209;-66
2021/07/28 10:37:45;;;;;;;2.45;1.77;;;25.30;99.90;;;;;;4929931;29;20292;-68
2021/07/28 10:40:26;;;;;;;2.47;1.70;;;25.30;99.90;;;;;;4929883;29;20273;-67
2021/07/28 10:43:02;;;;;;;1.80;1.48;;;25.50;99.90;;;;;;4929900;29;20228;-66
2021/07/28 10:45:55;;;;;;;2.75;1.70;;;25.60;99.90;;;;;;4928386;29;20210;-69
2021/07/28 10:48:50;;;;;;;2.75;1.60;;;25.60;99.90;;;;;;4929855;29;20277;-68
2021/07/28 10:52:13;;;;;;;2.17;1.67;;;25.90;99.90;;;;;;4929301;29;20221;-67
2021/07/28 10:54:48;;;;;;;1.77;1.55;;;26.00;99.90;;;;;;4917595;29;20606;-69
2021/07/28 10:57:32;;;;;;;1.60;1.50;;;25.70;99.90;;;;;;4929598;29;20222;-69
2021/07/28 11:00:05;;;;;;;2.35;1.50;;;25.50;99.90;;;;;;4929376;29;20182;-67
2021/07/28 11:02:51;;;;;;;2.20;1.55;;;25.50;99.90;;;;;;4928960;29;20194;-68
2021/07/28 11:05:31;;;;;;;1.80;1.50;;;25.60;99.90;;;;;;4924535;29;21267;-67
2021/07/28 11:08:03;;;;;;;1.70;1.60;;;25.80;99.90;;;;;;4929119;29;20611;-69
2021/07/28 11:10:57;;;;;;;1.92;1.50;;;26.20;99.90;;;;;;4929101;29;20190;-67
2021/07/28 11:13:32;;;;;;;1.73;1.20;;;26.10;99.90;;;;;;4929156;29;20293;-69
2021/07/28 11:16:05;;;;;;;1.33;1.23;;;26.00;99.90;;;;;;4928354;29;20233;-67
2021/07/28 11:18:36;;;;;;;4.95;1.40;;;25.90;99.90;;;;;;4929180;29;20209;-69
2021/07/28 11:21:16;;;;;;;2.03;1.60;;;25.90;99.90;;;;;;4929389;29;20182;-68
2021/07/28 11:23:45;;;;;;;1.83;1.40;;;26.40;99.90;;;;;;4928595;29;20608;-67
2021/07/28 11:26:20;;;;;;;1.60;1.33;;;27.00;99.90;;;;;;4928654;29;20204;-69
2021/07/28 11:28:47;;;;;;;1.70;1.20;;;27.30;99.90;;;;;;4929178;29;20271;-68
2021/07/28 11:31:13;;;;;;;1.95;1.60;;;27.30;99.90;;;;;;4928845;29;20190;-66
2021/07/28 11:37:04;;;;;;;1.80;1.27;;;27.30;99.90;;;;;;5843687;23;20233;-68
2021/07/28 11:39:31;;;;;;;3.08;1.40;;;27.40;99.90;;;;;;4920863;29;20190;-68
2021/07/28 11:42:06;;;;;;;1.90;1.50;;;27.40;99.90;;;;;;4929283;29;20543;-67
2021/07/28 11:44:45;;;;;;;1.50;1.35;;;27.10;99.90;;;;;;4928595;29;20189;-68
2021/07/28 11:47:12;;;;;;;1.50;1.40;;;26.80;99.90;;;;;;4910886;29;20206;-69
2021/07/28 11:49:39;;;;;;;1.65;1.23;;;26.80;99.90;;;;;;4909499;29;20187;-68
2021/07/28 11:52:05;;;;;;;1.77;1.67;;;27.30;99.90;;;;;;4909732;29;20242;-68
2021/07/28 11:54:33;;;;;;;1.75;1.30;;;27.40;99.90;;;;;;4908950;29;20211;-68
2021/07/28 11:56:59;;;;;;;2.00;1.73;;;27.30;99.90;;;;;;4909174;29;21237;-67
2021/07/28 11:59:28;;;;;;;2.17;1.80;;;27.20;99.90;;;;;;4909648;29;20223;-68
2021/07/28 12:01:55;;;;;;;1.65;1.42;;;27.30;99.90;;;;;;4903821;29;20179;-68
2021/07/28 12:04:32;;;;;;;1.60;1.33;;;27.50;99.90;;;;;;4908202;29;20194;-68
2021/07/28 12:07:18;;;;;;;1.20;1.10;;;27.80;99.90;;;;;;4908017;29;20213;-67
2021/07/28 12:09:58;;;;;;;2.28;1.17;;;27.90;99.90;;;;;;4907949;29;20195;-67
2021/07/28 12:12:24;;;;;;;1.20;1.10;;;27.90;99.90;;;;;;4909028;29;20280;-67
2021/07/28 12:15:05;;;;;;;1.73;1.38;;;28.10;99.90;;;;;;4922395;29;20579;-67
2021/07/28 12:17:31;;;;;;;1.40;1.30;;;28.10;99.90;;;;;;4908913;29;20210;-68
2021/07/28 12:20:01;;;;;;;1.20;1.10;;;28.10;99.90;;;;;;4908869;29;21010;-68
2021/07/28 12:22:28;;;;;;;1.45;1.33;;;27.90;99.90;;;;;;4908485;29;20233;-69
2021/07/28 12:24:54;;;;;;;1.60;1.50;;;27.40;99.90;;;;;;4908372;29;20183;-69
2021/07/28 12:27:26;;;;;;;1.30;1.20;;;27.30;99.90;;;;;;4908457;29;20218;-68
2021/07/28 12:30:08;;;;;;;1.55;1.02;;;27.70;99.90;;;;;;4908461;29;20659;-68
2021/07/28 12:32:37;;;;;;;2.20;1.05;;;28.00;99.90;;;;;;4908613;29;21360;-68
2021/07/28 12:35:05;;;;;;;1.20;1.10;;;28.00;99.90;;;;;;4907741;29;20215;-68
2021/07/28 12:37:30;;;;;;;1.40;1.30;;;27.80;99.90;;;;;;4907811;29;20574;-69
2021/07/28 12:39:57;;;;;;;1.30;1.10;;;27.30;99.90;;;;;;4908484;29;20260;-68
2021/07/28 12:42:22;;;;;;;1.42;1.33;;;27.20;99.90;;;;;;4908614;29;20243;-68
2021/07/28 12:44:49;;;;;;;1.42;1.30;;;27.30;99.90;;;;;;4907557;29;21075;-68
2021/07/28 12:47:15;;;;;;;2.72;1.17;;;27.50;99.90;;;;;;4908288;29;20210;-68
2021/07/28 12:49:40;;;;;;;1.08;0.98;;;27.60;99.90;;;;;;4908290;29;20187;-68
2021/07/28 12:52:06;;;;;;;1.30;1.20;;;27.60;99.90;;;;;;4908637;29;20199;-69
2021/07/28 12:54:32;;;;;;;1.30;1.20;;;27.70;99.90;;;;;;4906904;29;20215;-68
2021/07/28 12:56:57;;;;;;;1.27;1.17;;;28.30;99.90;;;;;;4907998;29;20207;-68
2021/07/28 12:59:23;;;;;;;1.52;1.42;;;28.50;99.90;;;;;;4908018;29;20190;-69
2021/07/28 13:01:49;;;;;;;1.80;1.25;;;28.50;99.90;;;;;;4906894;29;20253;-69
2021/07/28 13:04:15;;;;;;;2.15;1.67;;;28.40;99.90;;;;;;4906641;29;20568;-69
2021/07/28 13:06:53;;;;;;;1.40;1.27;;;27.90;99.90;;;;;;4907779;29;20298;-69
2021/07/28 13:09:19;;;;;;;3.75;1.65;;;28.10;99.90;;;;;;4908009;29;20190;-68